Time;durP1;ratioP1;P1;durP2;ratioP2;P2;SDS_P1;SDS_P2;PMS_P1;PMS_P2;Temp;Humidity;BMP_temperature;BMP_pressure;BME280_temperature;BME280_humidity;BME280_pressure;Samples;Min_cycle;Max_cycle;Signal;HPM_P1;HPM_P2
2021/04/22 00:02:22;;;;;;;4.40;1.90;;;;;;;;;;4974808;28;20304;-46
2021/04/22 00:04:47;;;;;;;3.88;2.03;;;;;;;;;;4970608;28;20187;-44
2021/04/22 00:07:13;;;;;;;8.02;2.15;;;;;;;;;;4969735;28;20572;-43
2021/04/22 00:09:38;;;;;;;4.53;2.00;;;;;;;;;;4970273;28;20181;-43
2021/04/22 00:12:06;;;;;;;4.20;2.47;;;;;;;;;;4972175;28;20655;-42
2021/04/22 00:14:31;;;;;;;3.50;2.10;;;;;;;;;;4966756;28;20187;-42
2021/04/22 00:16:56;;;;;;;2.87;2.10;;;;;;;;;;4983846;28;20601;-43
2021/04/22 00:19:21;;;;;;;4.50;2.00;;;;;;;;;;4969045;28;20183;-43
2021/04/22 00:21:46;;;;;;;5.37;2.10;;;;;;;;;;4969285;28;20178;-43
2021/04/22 00:24:11;;;;;;;4.53;2.38;;;;;;;;;;4968816;28;20182;-43
2021/04/22 00:26:37;;;;;;;6.23;2.10;;;;;;;;;;4968671;28;20174;-44
2021/04/22 00:29:02;;;;;;;7.53;2.13;;;;;;;;;;4982418;28;20549;-41
2021/04/22 00:31:27;;;;;;;3.70;2.30;;;;;;;;;;4976681;28;20237;-42
2021/04/22 00:33:52;;;;;;;2.33;1.80;;;;;;;;;;4972119;28;20641;-42
2021/04/22 00:36:17;;;;;;;3.77;2.20;;;;;;;;;;4971932;28;20680;-42
2021/04/22 00:38:43;;;;;;;2.97;2.10;;;;;;;;;;4971167;28;20220;-42
2021/04/22 00:41:09;;;;;;;4.20;2.07;;;;;;;;;;4970805;28;20227;-42
2021/04/22 00:43:34;;;;;;;4.97;2.03;;;;;;;;;;4968215;28;20233;-42
2021/04/22 00:45:59;;;;;;;3.00;1.97;;;;;;;;;;4968870;28;20605;-42
2021/04/22 00:48:25;;;;;;;6.60;2.00;;;;;;;;;;4968828;28;20204;-41
2021/04/22 00:50:51;;;;;;;2.77;1.90;;;;;;;;;;4972367;28;20178;-42
2021/04/22 00:53:17;;;;;;;3.30;2.07;;;;;;;;;;4973222;28;20595;-46
2021/04/22 00:55:42;;;;;;;4.00;2.10;;;;;;;;;;4969883;28;20178;-42
2021/04/22 00:58:08;;;;;;;6.10;2.40;;;;;;;;;;4978607;28;20651;-42
2021/04/22 01:00:37;;;;;;;5.30;2.40;;;;;;;;;;4971529;28;20176;-42
2021/04/22 01:03:03;;;;;;;6.40;2.07;;;;;;;;;;4973315;28;20185;-42
2021/04/22 01:05:30;;;;;;;6.93;2.50;;;;;;;;;;4969017;28;21160;-42
2021/04/22 01:07:55;;;;;;;6.77;2.30;;;;;;;;;;4973058;28;20607;-42
2021/04/22 01:10:21;;;;;;;2.87;2.27;;;;;;;;;;4973977;28;20614;-42
2021/04/22 01:12:47;;;;;;;5.00;2.03;;;;;;;;;;4972677;28;20189;-42
2021/04/22 01:15:14;;;;;;;3.90;2.30;;;;;;;;;;4974747;28;20234;-43
2021/04/22 01:17:40;;;;;;;2.83;1.73;;;;;;;;;;4972366;28;20206;-43
2021/04/22 01:20:19;;;;;;;4.00;1.90;;;;;;;;;;4973395;28;20603;-43
2021/04/22 01:22:45;;;;;;;2.87;2.10;;;;;;;;;;4973894;28;20178;-42
2021/04/22 01:25:12;;;;;;;4.63;2.00;;;;;;;;;;4983703;28;20698;-43
2021/04/22 01:27:40;;;;;;;4.40;2.23;;;;;;;;;;4976523;28;20192;-42
2021/04/22 01:30:14;;;;;;;3.40;1.90;;;;;;;;;;4976406;28;20601;-42
2021/04/22 01:32:39;;;;;;;5.57;2.00;;;;;;;;;;4964263;28;20604;-42
2021/04/22 01:35:08;;;;;;;2.80;1.70;;;;;;;;;;4977067;28;20604;-43
2021/04/22 01:37:35;;;;;;;3.77;1.80;;;;;;;;;;4973971;28;20208;-42
2021/04/22 01:40:00;;;;;;;4.40;1.80;;;;;;;;;;4982807;28;21194;-42
2021/04/22 01:42:25;;;;;;;3.80;1.93;;;;;;;;;;4971456;28;20619;-42
2021/04/22 01:44:50;;;;;;;7.32;2.63;;;;;;;;;;4975128;28;20175;-41
2021/04/22 01:47:15;;;;;;;5.50;2.78;;;;;;;;;;4975838;28;20234;-41
2021/04/22 01:49:40;;;;;;;4.32;2.30;;;;;;;;;;4975866;28;20202;-42
2021/04/22 01:52:06;;;;;;;5.15;2.40;;;;;;;;;;4975341;28;20178;-42
2021/04/22 01:54:31;;;;;;;4.93;2.57;;;;;;;;;;4971312;28;20232;-42
2021/04/22 01:56:56;;;;;;;3.60;2.88;;;;;;;;;;4977380;28;20201;-42
2021/04/22 01:59:21;;;;;;;4.05;2.13;;;;;;;;;;4979587;28;20201;-42
2021/04/22 02:01:46;;;;;;;5.88;2.90;;;;;;;;;;4972119;28;20187;-42
2021/04/22 02:04:11;;;;;;;5.85;2.53;;;;;;;;;;4973773;28;20266;-42
2021/04/22 02:06:37;;;;;;;9.90;2.50;;;;;;;;;;4970707;28;20175;-42
2021/04/22 02:09:02;;;;;;;7.65;3.20;;;;;;;;;;4971421;28;20269;-42
2021/04/22 02:11:27;;;;;;;8.50;2.80;;;;;;;;;;4972362;28;20186;-43
2021/04/22 02:13:52;;;;;;;3.95;2.50;;;;;;;;;;4971487;28;20183;-42
2021/04/22 02:16:17;;;;;;;6.97;2.97;;;;;;;;;;4971463;28;20192;-42
2021/04/22 02:18:42;;;;;;;4.88;2.50;;;;;;;;;;4974420;28;20215;-42
2021/04/22 02:21:08;;;;;;;7.03;2.60;;;;;;;;;;4979880;28;20640;-41
2021/04/22 02:23:33;;;;;;;7.47;2.88;;;;;;;;;;4974349;28;20178;-41
2021/04/22 02:25:58;;;;;;;4.27;2.63;;;;;;;;;;4972971;28;20192;-41
2021/04/22 02:28:23;;;;;;;7.35;2.92;;;;;;;;;;4970517;28;20179;-43
2021/04/22 02:30:48;;;;;;;9.23;3.17;;;;;;;;;;4970849;28;20274;-42
2021/04/22 02:33:15;;;;;;;7.50;2.58;;;;;;;;;;4970518;28;20187;-42
2021/04/22 02:35:42;;;;;;;6.83;3.30;;;;;;;;;;4971352;28;20194;-43
2021/04/22 02:38:08;;;;;;;9.33;3.23;;;;;;;;;;4970860;28;20708;-41
2021/04/22 02:40:34;;;;;;;9.17;2.77;;;;;;;;;;4969817;28;20661;-41
2021/04/22 02:43:00;;;;;;;8.67;3.37;;;;;;;;;;4974046;28;21118;-42
2021/04/22 02:45:27;;;;;;;9.70;3.53;;;;;;;;;;4973980;28;20605;-41
2021/04/22 02:47:52;;;;;;;7.00;3.80;;;;;;;;;;4975857;28;20175;-41
2021/04/22 02:50:18;;;;;;;5.53;3.20;;;;;;;;;;4970588;28;20680;-41
2021/04/22 02:52:44;;;;;;;13.40;3.17;;;;;;;;;;4970952;28;20183;-41
2021/04/22 02:55:09;;;;;;;12.03;4.00;;;;;;;;;;4969410;28;20683;-41
2021/04/22 02:57:34;;;;;;;9.33;3.47;;;;;;;;;;4969646;28;20231;-42
2021/04/22 03:00:00;;;;;;;6.15;3.05;;;;;;;;;;4960202;28;20191;-42
2021/04/22 03:02:25;;;;;;;7.77;3.40;;;;;;;;;;4970708;28;20180;-42
2021/04/22 03:04:50;;;;;;;7.97;4.03;;;;;;;;;;4971287;28;20237;-42
2021/04/22 03:07:15;;;;;;;8.03;4.27;;;;;;;;;;4972882;28;20183;-42
2021/04/22 03:09:40;;;;;;;6.90;4.13;;;;;;;;;;4971960;28;20217;-42
2021/04/22 03:12:06;;;;;;;6.70;3.90;;;;;;;;;;4970220;28;20208;-42
2021/04/22 03:14:31;;;;;;;10.83;3.97;;;;;;;;;;4974507;28;20185;-42
2021/04/22 03:16:56;;;;;;;9.40;3.42;;;;;;;;;;4980531;28;21106;-42
2021/04/22 03:19:22;;;;;;;7.85;3.97;;;;;;;;;;4968991;28;20199;-42
2021/04/22 03:21:47;;;;;;;12.25;3.80;;;;;;;;;;4973432;28;20190;-42
2021/04/22 03:24:12;;;;;;;8.37;4.00;;;;;;;;;;4970307;28;20603;-42
2021/04/22 03:26:37;;;;;;;6.33;3.23;;;;;;;;;;4976416;28;20257;-42
2021/04/22 03:29:03;;;;;;;12.98;3.75;;;;;;;;;;4969879;28;20182;-42
2021/04/22 03:31:28;;;;;;;6.30;3.53;;;;;;;;;;4972132;28;20225;-42
2021/04/22 03:33:53;;;;;;;6.90;3.30;;;;;;;;;;4975415;28;20178;-42
2021/04/22 03:36:18;;;;;;;9.50;3.77;;;;;;;;;;4970749;28;20636;-42
2021/04/22 03:38:44;;;;;;;6.70;3.60;;;;;;;;;;4971620;28;20221;-42
2021/04/22 03:41:09;;;;;;;10.00;4.20;;;;;;;;;;4971288;28;20284;-42
2021/04/22 03:43:34;;;;;;;9.10;3.80;;;;;;;;;;4978419;28;20170;-42
2021/04/22 03:45:59;;;;;;;7.87;3.83;;;;;;;;;;4965897;28;20997;-43
2021/04/22 03:48:24;;;;;;;4.18;3.20;;;;;;;;;;4951740;28;20196;-43
2021/04/22 03:50:50;;;;;;;7.57;3.20;;;;;;;;;;4968159;28;20174;-42
2021/04/22 03:53:15;;;;;;;5.70;2.95;;;;;;;;;;4967158;28;20183;-42
2021/04/22 03:55:40;;;;;;;8.27;3.35;;;;;;;;;;4976612;28;20676;-42
2021/04/22 03:58:05;;;;;;;10.80;3.73;;;;;;;;;;4967467;28;20210;-41
2021/04/22 04:00:30;;;;;;;11.33;4.07;;;;;;;;;;4968195;28;20297;-42
2021/04/22 04:02:55;;;;;;;9.17;2.80;;;;;;;;;;4966673;28;20242;-42
2021/04/22 04:05:21;;;;;;;7.65;3.78;;;;;;;;;;4973974;28;20162;-42
2021/04/22 04:07:46;;;;;;;7.73;3.23;;;;;;;;;;4959012;28;20249;-43
2021/04/22 04:10:11;;;;;;;8.60;3.60;;;;;;;;;;4968775;28;20700;-42
2021/04/22 04:12:37;;;;;;;11.87;3.83;;;;;;;;;;4971754;28;20618;-43
2021/04/22 04:15:03;;;;;;;6.20;3.03;;;;;;;;;;4973080;28;20178;-43
2021/04/22 04:17:28;;;;;;;11.50;3.60;;;;;;;;;;4976228;28;20309;-42
2021/04/22 04:19:54;;;;;;;12.43;4.10;;;;;;;;;;4977092;28;20602;-42
2021/04/22 04:22:19;;;;;;;5.00;3.50;;;;;;;;;;4971240;28;20171;-43
2021/04/22 04:24:44;;;;;;;8.97;3.70;;;;;;;;;;4974273;28;20179;-42
2021/04/22 04:27:10;;;;;;;7.77;3.83;;;;;;;;;;4976274;28;20171;-43
2021/04/22 04:29:35;;;;;;;7.80;3.73;;;;;;;;;;4971639;28;20175;-43
2021/04/22 04:32:00;;;;;;;8.30;4.10;;;;;;;;;;4965376;28;20548;-42
2021/04/22 04:34:25;;;;;;;8.70;3.00;;;;;;;;;;4970598;28;20197;-42
2021/04/22 04:36:51;;;;;;;7.15;3.95;;;;;;;;;;4971354;28;20233;-43
2021/04/22 04:39:16;;;;;;;8.87;3.67;;;;;;;;;;4968435;28;20232;-43
2021/04/22 04:41:42;;;;;;;9.43;3.30;;;;;;;;;;4969241;28;20195;-43
2021/04/22 04:44:08;;;;;;;10.60;3.93;;;;;;;;;;4969550;28;20249;-42
2021/04/22 04:46:33;;;;;;;8.20;4.23;;;;;;;;;;4969395;28;20592;-43
2021/04/22 04:48:58;;;;;;;10.13;4.20;;;;;;;;;;4969330;28;20196;-43
2021/04/22 04:51:23;;;;;;;10.20;3.30;;;;;;;;;;4969066;28;20540;-42
2021/04/22 04:53:48;;;;;;;10.83;3.73;;;;;;;;;;4967740;28;20246;-42
2021/04/22 04:56:17;;;;;;;6.93;4.77;;;;;;;;;;4969644;28;20174;-42
2021/04/22 04:58:42;;;;;;;9.70;4.47;;;;;;;;;;4969628;28;20561;-42
2021/04/22 05:01:07;;;;;;;6.87;3.70;;;;;;;;;;4969092;28;20605;-43
2021/04/22 05:03:33;;;;;;;9.63;4.05;;;;;;;;;;4968895;28;20181;-42
2021/04/22 05:05:58;;;;;;;10.50;4.53;;;;;;;;;;4969126;28;20273;-43
2021/04/22 05:08:23;;;;;;;12.43;5.07;;;;;;;;;;4968829;28;20193;-42
2021/04/22 05:10:48;;;;;;;11.18;4.75;;;;;;;;;;4968756;28;20181;-42
2021/04/22 05:13:13;;;;;;;7.50;3.60;;;;;;;;;;4968745;28;20176;-42
2021/04/22 05:15:38;;;;;;;6.80;4.10;;;;;;;;;;4986377;28;20181;-42
2021/04/22 05:18:03;;;;;;;12.43;5.32;;;;;;;;;;4969187;28;20230;-42
2021/04/22 05:20:29;;;;;;;13.30;5.20;;;;;;;;;;4971743;28;20177;-47
2021/04/22 05:22:54;;;;;;;9.10;4.60;;;;;;;;;;4969617;28;20179;-42
2021/04/22 05:25:19;;;;;;;12.07;4.53;;;;;;;;;;4969124;28;20234;-41
2021/04/22 05:27:44;;;;;;;7.80;4.40;;;;;;;;;;4970510;28;20244;-43
2021/04/22 05:30:10;;;;;;;7.03;3.90;;;;;;;;;;4971694;28;20179;-43
2021/04/22 05:32:35;;;;;;;9.10;4.77;;;;;;;;;;4971547;28;20181;-44
2021/04/22 05:35:00;;;;;;;7.10;4.27;;;;;;;;;;4972153;28;20189;-43
2021/04/22 05:37:25;;;;;;;9.70;4.30;;;;;;;;;;4970497;28;20199;-43
2021/04/22 05:39:50;;;;;;;8.37;4.23;;;;;;;;;;4971137;28;20250;-42
2021/04/22 05:42:16;;;;;;;8.80;4.63;;;;;;;;;;4971790;28;20173;-42
2021/04/22 05:44:42;;;;;;;10.10;4.20;;;;;;;;;;4971946;28;20180;-43
2021/04/22 05:47:08;;;;;;;9.50;4.80;;;;;;;;;;4971614;28;20167;-43
2021/04/22 05:49:33;;;;;;;8.70;3.80;;;;;;;;;;4971525;28;20604;-42
2021/04/22 05:51:58;;;;;;;10.17;4.40;;;;;;;;;;4971520;28;20233;-43
2021/04/22 05:54:23;;;;;;;11.90;4.50;;;;;;;;;;4971510;28;20280;-42
2021/04/22 05:56:49;;;;;;;14.70;4.87;;;;;;;;;;4974477;28;20237;-43
2021/04/22 05:59:14;;;;;;;9.37;4.60;;;;;;;;;;4975901;28;20211;-43
2021/04/22 06:01:39;;;;;;;10.97;4.60;;;;;;;;;;4971998;28;20208;-45
2021/04/22 06:04:04;;;;;;;10.10;4.60;;;;;;;;;;4970821;28;20539;-43
2021/04/22 06:06:29;;;;;;;7.57;4.20;;;;;;;;;;4970652;28;20182;-43
2021/04/22 06:08:55;;;;;;;10.70;4.90;;;;;;;;;;4968397;28;20504;-42
2021/04/22 06:11:20;;;;;;;8.63;4.20;;;;;;;;;;4970562;28;20185;-42
2021/04/22 06:13:45;;;;;;;10.80;4.60;;;;;;;;;;4973160;28;20195;-46
2021/04/22 06:16:10;;;;;;;10.55;4.45;;;;;;;;;;4979955;28;20228;-43
2021/04/22 06:18:35;;;;;;;5.97;4.47;;;;;;;;;;4970791;28;20209;-43
2021/04/22 06:21:01;;;;;;;9.50;4.67;;;;;;;;;;4970787;28;20171;-43
2021/04/22 06:23:26;;;;;;;12.10;4.27;;;;;;;;;;4977939;28;20178;-42
2021/04/22 06:25:52;;;;;;;13.40;4.30;;;;;;;;;;4972116;28;20649;-42
2021/04/22 06:28:17;;;;;;;8.17;4.63;;;;;;;;;;4976371;28;20545;-42
2021/04/22 06:30:42;;;;;;;12.63;4.90;;;;;;;;;;4976551;28;20221;-42
2021/04/22 06:33:07;;;;;;;6.33;4.17;;;;;;;;;;4976047;28;20248;-43
2021/04/22 06:35:32;;;;;;;10.83;4.27;;;;;;;;;;4975595;28;20193;-44
2021/04/22 06:37:58;;;;;;;9.40;4.23;;;;;;;;;;4974213;28;20236;-42
2021/04/22 06:40:23;;;;;;;6.63;3.90;;;;;;;;;;4976849;28;20231;-41
2021/04/22 06:42:49;;;;;;;7.07;4.33;;;;;;;;;;4971895;28;20257;-43
2021/04/22 06:45:14;;;;;;;11.40;4.13;;;;;;;;;;4965604;28;20605;-42
2021/04/22 06:47:40;;;;;;;8.67;4.53;;;;;;;;;;4967543;28;20313;-41
2021/04/22 06:50:07;;;;;;;12.47;4.40;;;;;;;;;;4972613;28;20182;-42
2021/04/22 06:52:32;;;;;;;7.37;3.93;;;;;;;;;;4974446;28;20261;-42
2021/04/22 06:54:57;;;;;;;8.00;3.57;;;;;;;;;;4971465;28;20706;-41
2021/04/22 06:57:22;;;;;;;6.30;3.63;;;;;;;;;;4967417;28;20213;-43
2021/04/22 06:59:47;;;;;;;9.90;3.90;;;;;;;;;;4967293;28;20225;-42
2021/04/22 07:02:13;;;;;;;8.57;3.67;;;;;;;;;;4967679;28;20199;-42
2021/04/22 07:04:38;;;;;;;6.33;3.87;;;;;;;;;;4967085;28;20184;-42
2021/04/22 07:07:03;;;;;;;7.27;4.20;;;;;;;;;;4966747;28;20243;-41
2021/04/22 07:09:32;;;;;;;6.30;4.00;;;;;;;;;;4967214;28;20215;-43
2021/04/22 07:11:57;;;;;;;8.10;3.90;;;;;;;;;;4966944;28;20195;-43
2021/04/22 07:14:23;;;;;;;5.33;3.50;;;;;;;;;;4974039;28;21242;-42
2021/04/22 07:16:48;;;;;;;9.00;3.77;;;;;;;;;;4967592;28;20713;-41
2021/04/22 07:19:13;;;;;;;9.90;4.00;;;;;;;;;;4975706;28;20221;-42
2021/04/22 07:21:38;;;;;;;6.17;3.80;;;;;;;;;;4979220;28;20189;-42
2021/04/22 07:24:03;;;;;;;7.90;4.00;;;;;;;;;;4979248;28;20176;-43
2021/04/22 07:26:29;;;;;;;4.60;3.33;;;;;;;;;;4974197;28;20179;-43
2021/04/22 07:28:54;;;;;;;11.70;3.97;;;;;;;;;;4983121;28;20238;-42
2021/04/22 07:31:19;;;;;;;8.68;3.88;;;;;;;;;;4975227;28;20180;-41
2021/04/22 07:33:44;;;;;;;7.68;3.28;;;;;;;;;;4975019;28;20186;-42
2021/04/22 07:36:10;;;;;;;9.03;4.00;;;;;;;;;;4967172;28;20176;-41
2021/04/22 07:38:35;;;;;;;11.63;3.60;;;;;;;;;;4975720;28;20217;-40
2021/04/22 07:41:00;;;;;;;10.95;3.88;;;;;;;;;;4974003;28;20342;-41
2021/04/22 07:43:25;;;;;;;8.97;4.10;;;;;;;;;;4979980;28;20184;-42
2021/04/22 07:45:50;;;;;;;7.07;3.97;;;;;;;;;;4972571;28;20227;-42
2021/04/22 07:48:15;;;;;;;7.27;3.80;;;;;;;;;;4971125;28;20465;-42
2021/04/22 07:50:41;;;;;;;5.97;3.40;;;;;;;;;;4968889;28;20182;-44
2021/04/22 07:53:07;;;;;;;6.97;3.70;;;;;;;;;;4968144;28;20185;-42
2021/04/22 07:55:34;;;;;;;7.90;4.27;;;;;;;;;;4965541;28;20179;-42
2021/04/22 07:57:59;;;;;;;8.43;3.63;;;;;;;;;;4971196;28;20328;-43
2021/04/22 08:00:25;;;;;;;4.70;3.43;;;;;;;;;;4976547;28;20673;-42
2021/04/22 08:02:51;;;;;;;9.60;3.57;;;;;;;;;;4970641;28;20626;-42
2021/04/22 08:05:17;;;;;;;10.80;4.13;;;;;;;;;;4974399;28;20172;-43
2021/04/22 08:07:42;;;;;;;10.97;3.83;;;;;;;;;;4970179;28;20298;-42
2021/04/22 08:10:08;;;;;;;6.93;3.97;;;;;;;;;;4973550;28;20607;-43
2021/04/22 08:12:34;;;;;;;9.50;3.87;;;;;;;;;;4969934;28;20210;-42
2021/04/22 08:15:00;;;;;;;7.03;3.60;;;;;;;;;;4971002;28;20629;-43
2021/04/22 08:17:25;;;;;;;8.47;3.93;;;;;;;;;;4981225;28;20186;-43
2021/04/22 08:19:50;;;;;;;8.60;3.70;;;;;;;;;;4975124;28;20601;-43
2021/04/22 08:22:16;;;;;;;11.77;4.13;;;;;;;;;;4969391;28;20177;-43
2021/04/22 08:24:41;;;;;;;10.73;3.60;;;;;;;;;;4970680;28;20178;-42
2021/04/22 08:27:06;;;;;;;8.20;3.72;;;;;;;;;;4974437;28;20174;-43
2021/04/22 08:29:31;;;;;;;7.10;3.50;;;;;;;;;;4967984;28;20304;-43
2021/04/22 08:31:56;;;;;;;9.40;4.40;;;;;;;;;;4966083;28;20177;-48
2021/04/22 08:34:25;;;;;;;7.77;4.30;;;;;;;;;;4976342;28;20698;-43
2021/04/22 08:36:50;;;;;;;8.20;3.70;;;;;;;;;;4963612;28;20193;-43
2021/04/22 08:39:17;;;;;;;5.47;3.65;;;;;;;;;;4965267;28;20692;-43
2021/04/22 08:41:42;;;;;;;7.23;3.83;;;;;;;;;;4966949;28;20209;-43
2021/04/22 08:44:08;;;;;;;9.90;4.67;;;;;;;;;;4977194;28;20601;-43
2021/04/22 08:46:38;;;;;;;11.57;4.30;;;;;;;;;;4971955;28;20181;-43
2021/04/22 08:49:04;;;;;;;5.60;3.83;;;;;;;;;;4969453;28;20213;-42
2021/04/22 08:51:29;;;;;;;7.30;4.13;;;;;;;;;;4972894;28;20606;-42
2021/04/22 08:53:54;;;;;;;5.63;3.20;;;;;;;;;;4969816;28;20212;-41
2021/04/22 08:56:20;;;;;;;8.77;3.60;;;;;;;;;;4970515;28;20267;-42
2021/04/22 08:58:45;;;;;;;8.30;4.30;;;;;;;;;;4971912;28;20211;-42
2021/04/22 09:01:12;;;;;;;8.07;4.27;;;;;;;;;;4972874;28;20393;-42
2021/04/22 09:03:38;;;;;;;7.17;4.20;;;;;;;;;;4977825;28;20177;-42
2021/04/22 09:06:03;;;;;;;5.90;3.70;;;;;;;;;;4968474;28;20595;-43
2021/04/22 09:08:36;;;;;;;6.23;3.50;;;;;;;;;;4966572;28;20991;-43
2021/04/22 09:11:02;;;;;;;9.30;4.20;;;;;;;;;;4968269;28;20199;-43
2021/04/22 09:13:28;;;;;;;6.23;3.40;;;;;;;;;;4971116;28;21402;-43
2021/04/22 09:15:59;;;;;;;9.27;3.80;;;;;;;;;;4969078;28;20623;-43
2021/04/22 09:18:24;;;;;;;7.60;3.80;;;;;;;;;;4980605;28;20221;-42
2021/04/22 09:20:51;;;;;;;8.43;3.93;;;;;;;;;;4980801;28;20603;-43
2021/04/22 09:23:16;;;;;;;8.63;4.57;;;;;;;;;;4976694;28;20174;-43
2021/04/22 09:25:41;;;;;;;4.43;3.73;;;;;;;;;;4974330;28;20598;-43
2021/04/22 09:28:07;;;;;;;6.17;3.37;;;;;;;;;;4979598;28;20209;-44
2021/04/22 09:30:35;;;;;;;5.33;3.33;;;;;;;;;;4976042;28;20229;-43
2021/04/22 09:33:00;;;;;;;7.43;3.57;;;;;;;;;;4978577;28;20742;-43
2021/04/22 09:35:26;;;;;;;7.10;3.13;;;;;;;;;;4976083;28;20741;-42
2021/04/22 09:37:53;;;;;;;7.50;3.73;;;;;;;;;;4980681;28;20201;-43
2021/04/22 09:40:22;;;;;;;5.87;3.20;;;;;;;;;;4975670;28;20834;-43
2021/04/22 09:42:48;;;;;;;6.40;4.00;;;;;;;;;;4985122;28;20598;-43
2021/04/22 09:45:15;;;;;;;8.90;3.23;;;;;;;;;;4981470;28;20616;-43
2021/04/22 09:47:43;;;;;;;6.03;2.93;;;;;;;;;;4973966;28;20182;-43
2021/04/22 09:50:19;;;;;;;6.93;3.17;;;;;;;;;;4971750;28;20595;-43
2021/04/22 09:52:46;;;;;;;5.37;3.17;;;;;;;;;;4977002;28;21397;-43
2021/04/22 09:55:13;;;;;;;5.23;3.30;;;;;;;;;;4978610;28;20624;-43
2021/04/22 09:57:38;;;;;;;4.60;3.30;;;;;;;;;;4953656;28;21445;-45
2021/04/22 10:00:08;;;;;;;8.77;3.60;;;;;;;;;;4975456;28;20618;-42
2021/04/22 10:02:55;;;;;;;6.20;3.37;;;;;;;;;;4970294;28;20598;-42
2021/04/22 10:05:21;;;;;;;7.57;2.90;;;;;;;;;;4973844;28;20600;-41
2021/04/22 10:07:47;;;;;;;9.03;3.50;;;;;;;;;;4974467;28;20830;-41
2021/04/22 10:10:14;;;;;;;6.03;3.27;;;;;;;;;;4975956;28;20693;-42
2021/04/22 10:12:39;;;;;;;7.20;3.50;;;;;;;;;;4975200;28;20187;-41
2021/04/22 10:15:17;;;;;;;6.22;3.50;;;;;;;;;;4974703;28;20690;-41
2021/04/22 10:17:50;;;;;;;5.30;3.67;;;;;;;;;;4967848;28;20293;-41
2021/04/22 10:20:15;;;;;;;7.20;3.60;;;;;;;;;;4967941;28;20594;-43
2021/04/22 10:22:44;;;;;;;6.00;3.00;;;;;;;;;;4974059;28;20589;-42
2021/04/22 10:25:10;;;;;;;7.43;3.70;;;;;;;;;;4971368;28;20357;-43
2021/04/22 10:27:36;;;;;;;10.30;3.50;;;;;;;;;;4980042;28;20671;-42
2021/04/22 10:30:02;;;;;;;4.23;3.23;;;;;;;;;;4977655;28;20594;-42
2021/04/22 10:32:28;;;;;;;5.87;3.33;;;;;;;;;;4971241;28;20496;-43
2021/04/22 10:34:54;;;;;;;6.97;3.90;;;;;;;;;;4982595;28;21150;-42
2021/04/22 10:37:20;;;;;;;4.70;3.40;;;;;;;;;;4979667;28;20213;-42
2021/04/22 10:39:46;;;;;;;5.20;4.13;;;;;;;;;;4972167;28;20244;-42
2021/04/22 10:42:11;;;;;;;6.27;3.90;;;;;;;;;;4976350;28;21237;-42
2021/04/22 10:44:37;;;;;;;6.83;3.70;;;;;;;;;;4971010;28;20179;-42
2021/04/22 10:47:02;;;;;;;6.97;4.20;;;;;;;;;;4971624;28;20345;-43
2021/04/22 10:49:27;;;;;;;5.50;3.73;;;;;;;;;;4977249;28;20947;-42
2021/04/22 10:51:53;;;;;;;9.97;3.60;;;;;;;;;;4978597;28;20194;-42
2021/04/22 10:54:18;;;;;;;6.63;3.70;;;;;;;;;;4986449;28;20890;-42
2021/04/22 10:56:45;;;;;;;8.33;4.57;;;;;;;;;;4971130;28;20185;-42
2021/04/22 10:59:20;;;;;;;8.90;4.70;;;;;;;;;;4972338;28;20229;-42
2021/04/22 11:01:45;;;;;;;7.87;4.70;;;;;;;;;;4974916;28;20613;-42
2021/04/22 11:04:10;;;;;;;6.33;4.27;;;;;;;;;;4986850;28;20599;-42
2021/04/22 11:06:40;;;;;;;8.93;4.23;;;;;;;;;;4971760;28;20597;-42
2021/04/22 11:09:16;;;;;;;6.93;5.10;;;;;;;;;;4972861;28;20722;-43
2021/04/22 11:12:00;;;;;;;5.80;4.57;;;;;;;;;;4978244;28;20639;-42
2021/04/22 11:14:34;;;;;;;4.53;3.50;;;;;;;;;;4967904;28;20973;-43
2021/04/22 11:16:59;;;;;;;8.23;4.30;;;;;;;;;;4980055;28;20612;-43
2021/04/22 11:19:30;;;;;;;5.43;4.43;;;;;;;;;;4973821;28;20641;-41
2021/04/22 11:21:56;;;;;;;9.40;4.73;;;;;;;;;;4953567;28;20182;-42
2021/04/22 11:24:32;;;;;;;9.77;4.20;;;;;;;;;;4972382;28;20655;-42
2021/04/22 11:26:59;;;;;;;7.53;4.50;;;;;;;;;;4969659;28;20648;-41
2021/04/22 11:29:24;;;;;;;5.90;4.43;;;;;;;;;;4970509;28;20955;-42
2021/04/22 11:31:50;;;;;;;5.20;4.50;;;;;;;;;;4973407;28;20689;-42
2021/04/22 11:34:16;;;;;;;5.87;5.03;;;;;;;;;;4988539;28;20227;-41
2021/04/22 11:36:51;;;;;;;11.67;5.00;;;;;;;;;;4972572;28;20629;-41
2021/04/22 11:39:16;;;;;;;10.40;5.60;;;;;;;;;;4969133;28;20245;-42
2021/04/22 11:41:51;;;;;;;7.10;4.83;;;;;;;;;;4969212;28;20623;-42
2021/04/22 11:44:16;;;;;;;7.97;4.57;;;;;;;;;;4977041;28;20172;-42
2021/04/22 11:46:43;;;;;;;6.45;4.85;;;;;;;;;;4976335;28;20581;-42
2021/04/22 11:49:09;;;;;;;8.90;5.07;;;;;;;;;;4972568;28;20187;-42
2021/04/22 11:51:36;;;;;;;8.03;4.70;;;;;;;;;;4978112;28;20589;-41
2021/04/22 11:54:01;;;;;;;7.03;4.30;;;;;;;;;;4970005;28;21156;-42
2021/04/22 11:56:27;;;;;;;5.13;4.10;;;;;;;;;;4969724;28;20581;-42
2021/04/22 11:58:52;;;;;;;8.60;4.83;;;;;;;;;;4974770;28;20572;-42
2021/04/22 12:01:18;;;;;;;6.73;4.30;;;;;;;;;;4985089;28;20589;-41
2021/04/22 12:03:43;;;;;;;7.10;4.50;;;;;;;;;;4985270;28;20173;-41
2021/04/22 12:06:09;;;;;;;11.93;5.80;;;;;;;;;;4975670;28;20564;-41
2021/04/22 12:08:35;;;;;;;6.17;4.10;;;;;;;;;;4978543;28;20547;-42
2021/04/22 12:11:02;;;;;;;5.73;4.30;;;;;;;;;;4977348;28;20659;-41
2021/04/22 12:13:28;;;;;;;7.27;4.60;;;;;;;;;;4979633;28;21243;-41
2021/04/22 12:15:54;;;;;;;6.63;4.30;;;;;;;;;;4968998;28;20610;-41
2021/04/22 12:18:22;;;;;;;5.27;4.40;;;;;;;;;;4976694;28;20202;-41
2021/04/22 12:20:48;;;;;;;7.97;5.33;;;;;;;;;;4974950;28;21033;-41
2021/04/22 12:23:13;;;;;;;10.03;6.17;;;;;;;;;;4969190;28;20620;-42
2021/04/22 12:25:38;;;;;;;11.10;4.90;;;;;;;;;;4969102;28;20237;-42
2021/04/22 12:28:06;;;;;;;9.37;5.37;;;;;;;;;;4968525;28;20190;-42
2021/04/22 12:30:32;;;;;;;10.03;5.20;;;;;;;;;;4967010;28;20262;-42
2021/04/22 12:33:06;;;;;;;8.37;4.70;;;;;;;;;;4966244;28;20622;-42
2021/04/22 12:35:31;;;;;;;6.37;4.57;;;;;;;;;;4968021;28;20963;-41
2021/04/22 12:37:57;;;;;;;9.97;5.10;;;;;;;;;;4968513;28;20657;-42
2021/04/22 12:40:23;;;;;;;9.97;4.43;;;;;;;;;;4972426;28;20218;-41
2021/04/22 12:42:48;;;;;;;7.80;4.60;;;;;;;;;;4973717;28;20185;-41
2021/04/22 12:45:14;;;;;;;6.00;4.97;;;;;;;;;;4979356;28;21359;-40
2021/04/22 12:47:39;;;;;;;4.03;3.60;;;;;;;;;;4980185;28;20603;-41
2021/04/22 12:50:05;;;;;;;5.93;4.15;;;;;;;;;;4973284;28;20634;-41
2021/04/22 12:52:31;;;;;;;4.90;3.57;;;;;;;;;;4978811;28;20552;-41
2021/04/22 12:54:57;;;;;;;7.07;4.28;;;;;;;;;;4974252;28;20603;-42
2021/04/22 12:57:23;;;;;;;4.23;3.83;;;;;;;;;;4977708;28;20182;-43
2021/04/22 12:59:48;;;;;;;4.67;3.63;;;;;;;;;;4982421;28;20740;-41
2021/04/22 13:02:14;;;;;;;4.20;3.60;;;;;;;;;;4982701;28;20604;-41
2021/04/22 13:04:40;;;;;;;6.10;3.93;;;;;;;;;;4978336;28;20194;-42
2021/04/22 13:07:05;;;;;;;6.80;3.93;;;;;;;;;;4980715;28;20722;-42
2021/04/22 13:09:31;;;;;;;9.77;4.10;;;;;;;;;;4976778;28;20660;-41
2021/04/22 13:11:56;;;;;;;8.67;3.87;;;;;;;;;;4989905;28;20181;-42
2021/04/22 13:14:24;;;;;;;5.03;3.90;;;;;;;;;;4983962;28;20194;-42
2021/04/22 13:16:53;;;;;;;8.70;3.90;;;;;;;;;;4972918;28;20182;-42
2021/04/22 13:19:37;;;;;;;8.13;3.70;;;;;;;;;;4980449;28;20669;-43
2021/04/22 13:22:02;;;;;;;4.60;2.97;;;;;;;;;;4976640;28;20702;-42
2021/04/22 13:24:29;;;;;;;7.70;3.70;;;;;;;;;;4982545;28;20601;-42
2021/04/22 13:27:01;;;;;;;5.50;3.60;;;;;;;;;;4980138;28;20185;-42
2021/04/22 13:29:28;;;;;;;8.90;4.20;;;;;;;;;;4974938;28;20594;-42
2021/04/22 13:32:04;;;;;;;6.30;3.53;;;;;;;;;;4979689;28;20628;-42
2021/04/22 13:34:36;;;;;;;4.50;3.73;;;;;;;;;;4977570;28;20608;-42
2021/04/22 13:37:02;;;;;;;9.57;3.63;;;;;;;;;;4975166;28;20689;-42
2021/04/22 13:39:30;;;;;;;7.17;4.50;;;;;;;;;;4978124;28;20669;-42
2021/04/22 13:41:55;;;;;;;8.43;4.40;;;;;;;;;;4980598;28;20223;-42
2021/04/22 13:44:20;;;;;;;10.07;4.70;;;;;;;;;;4977044;28;21188;-42
2021/04/22 13:47:05;;;;;;;4.57;4.00;;;;;;;;;;4975370;28;20235;-42
2021/04/22 13:49:31;;;;;;;8.30;4.77;;;;;;;;;;4968218;28;20213;-41
2021/04/22 13:52:04;;;;;;;7.37;4.97;;;;;;;;;;4967970;28;20638;-43
2021/04/22 13:54:31;;;;;;;7.50;4.40;;;;;;;;;;4968313;28;20611;-42
2021/04/22 13:57:06;;;;;;;7.50;5.10;;;;;;;;;;4967738;28;20697;-43
2021/04/22 13:59:31;;;;;;;7.87;5.70;;;;;;;;;;4967684;28;20645;-42
2021/04/22 14:02:00;;;;;;;9.07;5.22;;;;;;;;;;4967704;28;20676;-43
2021/04/22 14:04:25;;;;;;;7.53;4.70;;;;;;;;;;4972201;28;20235;-43
2021/04/22 14:06:52;;;;;;;6.47;4.33;;;;;;;;;;4976074;28;20991;-42
2021/04/22 14:09:17;;;;;;;5.47;3.83;;;;;;;;;;4970903;28;20209;-42
2021/04/22 14:11:43;;;;;;;7.73;4.67;;;;;;;;;;4970128;28;20787;-43
2021/04/22 14:14:10;;;;;;;6.23;4.40;;;;;;;;;;4971089;28;20211;-42
2021/04/22 14:16:35;;;;;;;4.03;3.53;;;;;;;;;;4971081;28;21209;-43
2021/04/22 14:19:01;;;;;;;5.93;3.57;;;;;;;;;;4974740;28;20681;-42
2021/04/22 14:21:27;;;;;;;6.63;3.80;;;;;;;;;;4971743;28;20192;-41
2021/04/22 14:23:54;;;;;;;5.57;3.70;;;;;;;;;;4966927;28;20271;-42
2021/04/22 14:26:19;;;;;;;6.97;3.90;;;;;;;;;;4964913;28;20246;-42
2021/04/22 14:28:44;;;;;;;5.43;3.53;;;;;;;;;;4967908;28;20586;-42
2021/04/22 14:31:10;;;;;;;5.10;3.70;;;;;;;;;;4967709;28;20793;-42
2021/04/22 14:33:35;;;;;;;5.87;3.80;;;;;;;;;;4968291;28;20213;-42
2021/04/22 14:36:00;;;;;;;5.07;4.07;;;;;;;;;;4967422;28;20192;-42